sensor_id;sensor_type;location;lat;lon;timestamp;pressure;altitude;pressure_sealevel;temperature;humidity
24610;BME280;12758;47.890;11.694;2023-11-22T00:01:41;93746.00;;;5.65;100.00
24610;BME280;12758;47.890;11.694;2023-11-22T00:04:07;93745.59;;;5.85;100.00
24610;BME280;12758;47.890;11.694;2023-11-22T00:06:34;93749.78;;;5.64;100.00
24610;BME280;12758;47.890;11.694;2023-11-22T00:09:00;93748.00;;;5.73;100.00
24610;BME280;12758;47.890;11.694;2023-11-22T00:11:27;93746.00;;;5.65;100.00
24610;BME280;12758;47.890;11.694;2023-11-22T00:13:53;93747.19;;;5.58;100.00
24610;BME280;12758;47.890;11.694;2023-11-22T00:16:21;93750.00;;;5.53;100.00
24610;BME280;12758;47.890;11.694;2023-11-22T00:18:47;93747.88;;;5.92;100.00
24610;BME280;12758;47.890;11.694;2023-11-22T00:21:13;93741.91;;;6.09;100.00
24610;BME280;12758;47.890;11.694;2023-11-22T00:23:39;93748.88;;;6.10;100.00
24610;BME280;12758;47.890;11.694;2023-11-22T00:26:05;93746.06;;;6.15;100.00
24610;BME280;12758;47.890;11.694;2023-11-22T00:28:31;93754.31;;;6.32;100.00
24610;BME280;12758;47.890;11.694;2023-11-22T00:30:57;93755.53;;;6.26;100.00
24610;BME280;12758;47.890;11.694;2023-11-22T00:33:23;93752.94;;;6.21;100.00
24610;BME280;12758;47.890;11.694;2023-11-22T00:35:50;93753.63;;;6.63;100.00
24610;BME280;12758;47.890;11.694;2023-11-22T00:38:18;93760.75;;;6.81;100.00
24610;BME280;12758;47.890;11.694;2023-11-22T00:40:45;93754.31;;;6.91;100.00
24610;BME280;12758;47.890;11.694;2023-11-22T00:43:11;93760.56;;;7.00;100.00
24610;BME280;12758;47.890;11.694;2023-11-22T00:45:37;93760.69;;;6.95;100.00
24610;BME280;12758;47.890;11.694;2023-11-22T00:48:03;93769.81;;;7.08;100.00
24610;BME280;12758;47.890;11.694;2023-11-22T00:50:29;93777.19;;;6.93;100.00
24610;BME280;12758;47.890;11.694;2023-11-22T00:52:55;93785.28;;;6.93;100.00
24610;BME280;12758;47.890;11.694;2023-11-22T00:55:21;93777.59;;;7.09;100.00
24610;BME280;12758;47.890;11.694;2023-11-22T00:57:48;93782.19;;;7.09;100.00
24610;BME280;12758;47.890;11.694;2023-11-22T01:00:14;93782.94;;;7.23;100.00
24610;BME280;12758;47.890;11.694;2023-11-22T01:02:41;93782.38;;;7.12;100.00
24610;BME280;12758;47.890;11.694;2023-11-22T01:05:08;93799.00;;;6.83;100.00
24610;BME280;12758;47.890;11.694;2023-11-22T01:07:36;93801.75;;;6.92;100.00
24610;BME280;12758;47.890;11.694;2023-11-22T01:10:02;93792.00;;;7.05;100.00
24610;BME280;12758;47.890;11.694;2023-11-22T01:12:28;93804.63;;;6.95;100.00
24610;BME280;12758;47.890;11.694;2023-11-22T01:14:55;93799.84;;;6.92;100.00
24610;BME280;12758;47.890;11.694;2023-11-22T01:17:21;93803.50;;;6.74;100.00
24610;BME280;12758;47.890;11.694;2023-11-22T01:19:47;93798.59;;;6.53;100.00
24610;BME280;12758;47.890;11.694;2023-11-22T01:22:13;93802.66;;;6.15;100.00
24610;BME280;12758;47.890;11.694;2023-11-22T01:24:39;93796.06;;;6.21;100.00
24610;BME280;12758;47.890;11.694;2023-11-22T01:27:05;93794.69;;;6.10;100.00
24610;BME280;12758;47.890;11.694;2023-11-22T01:29:31;93799.59;;;6.07;100.00
24610;BME280;12758;47.890;11.694;2023-11-22T01:31:57;93792.38;;;6.03;100.00
24610;BME280;12758;47.890;11.694;2023-11-22T01:34:24;93797.09;;;5.97;100.00
24610;BME280;12758;47.890;11.694;2023-11-22T01:36:50;93794.28;;;5.75;100.00
24610;BME280;12758;47.890;11.694;2023-11-22T01:39:16;93785.19;;;5.57;100.00
24610;BME280;12758;47.890;11.694;2023-11-22T01:41:44;93784.38;;;5.43;100.00
24610;BME280;12758;47.890;11.694;2023-11-22T01:44:10;93792.81;;;5.36;100.00
24610;BME280;12758;47.890;11.694;2023-11-22T01:46:36;93790.25;;;5.31;100.00
24610;BME280;12758;47.890;11.694;2023-11-22T01:49:03;93792.41;;;5.29;100.00
24610;BME280;12758;47.890;11.694;2023-11-22T01:51:29;93786.56;;;5.27;100.00
24610;BME280;12758;47.890;11.694;2023-11-22T01:53:57;93790.59;;;5.10;100.00
24610;BME280;12758;47.890;11.694;2023-11-22T01:56:26;93791.59;;;5.14;100.00
24610;BME280;12758;47.890;11.694;2023-11-22T01:58:52;93788.81;;;5.20;100.00
24610;BME280;12758;47.890;11.694;2023-11-22T02:01:20;93791.19;;;5.07;100.00
24610;BME280;12758;47.890;11.694;2023-11-22T02:03:46;93784.47;;;5.24;100.00
24610;BME280;12758;47.890;11.694;2023-11-22T02:06:15;93788.22;;;5.23;100.00
24610;BME280;12758;47.890;11.694;2023-11-22T02:08:42;93781.25;;;5.22;100.00
24610;BME280;12758;47.890;11.694;2023-11-22T02:11:08;93780.31;;;5.59;100.00
24610;BME280;12758;47.890;11.694;2023-11-22T02:13:34;93779.91;;;5.66;100.00
24610;BME280;12758;47.890;11.694;2023-11-22T02:16:01;93779.41;;;5.64;100.00
24610;BME280;12758;47.890;11.694;2023-11-22T02:18:28;93779.72;;;5.76;100.00
24610;BME280;12758;47.890;11.694;2023-11-22T02:20:54;93773.91;;;6.24;100.00
24610;BME280;12758;47.890;11.694;2023-11-22T02:23:21;93785.22;;;6.48;100.00
24610;BME280;12758;47.890;11.694;2023-11-22T02:25:47;93783.13;;;5.95;100.00
24610;BME280;12758;47.890;11.694;2023-11-22T02:28:13;93795.56;;;5.64;100.00
24610;BME280;12758;47.890;11.694;2023-11-22T02:30:39;93800.25;;;5.72;100.00
24610;BME280;12758;47.890;11.694;2023-11-22T02:33:06;93803.47;;;6.01;100.00
24610;BME280;12758;47.890;11.694;2023-11-22T02:35:32;93798.63;;;5.43;100.00
24610;BME280;12758;47.890;11.694;2023-11-22T02:37:58;93809.94;;;5.26;100.00
24610;BME280;12758;47.890;11.694;2023-11-22T02:40:25;93805.78;;;5.34;100.00
24610;BME280;12758;47.890;11.694;2023-11-22T02:42:52;93808.97;;;5.36;100.00
24610;BME280;12758;47.890;11.694;2023-11-22T02:45:20;93806.72;;;5.43;100.00
24610;BME280;12758;47.890;11.694;2023-11-22T02:47:48;93814.47;;;5.31;100.00
24610;BME280;12758;47.890;11.694;2023-11-22T02:50:15;93810.78;;;5.41;100.00
24610;BME280;12758;47.890;11.694;2023-11-22T02:52:41;93806.72;;;5.71;100.00
24610;BME280;12758;47.890;11.694;2023-11-22T02:55:08;93807.63;;;5.66;100.00
24610;BME280;12758;47.890;11.694;2023-11-22T02:57:35;93811.91;;;5.81;100.00
24610;BME280;12758;47.890;11.694;2023-11-22T03:00:02;93810.44;;;6.02;100.00
24610;BME280;12758;47.890;11.694;2023-11-22T03:02:30;93812.81;;;6.32;100.00
24610;BME280;12758;47.890;11.694;2023-11-22T03:04:57;93819.66;;;6.01;100.00
24610;BME280;12758;47.890;11.694;2023-11-22T03:07:23;93824.38;;;5.49;100.00
24610;BME280;12758;47.890;11.694;2023-11-22T03:09:49;93831.88;;;4.49;100.00
24610;BME280;12758;47.890;11.694;2023-11-22T03:12:16;93841.56;;;4.07;100.00
24610;BME280;12758;47.890;11.694;2023-11-22T03:14:44;93841.56;;;3.83;100.00
24610;BME280;12758;47.890;11.694;2023-11-22T03:17:10;93846.53;;;3.71;100.00
24610;BME280;12758;47.890;11.694;2023-11-22T03:19:36;93851.47;;;3.35;100.00
24610;BME280;12758;47.890;11.694;2023-11-22T03:22:02;93852.63;;;3.23;100.00
24610;BME280;12758;47.890;11.694;2023-11-22T03:24:28;93858.25;;;3.27;100.00
24610;BME280;12758;47.890;11.694;2023-11-22T03:26:55;93864.50;;;3.17;100.00
24610;BME280;12758;47.890;11.694;2023-11-22T03:29:24;93856.94;;;3.24;100.00
24610;BME280;12758;47.890;11.694;2023-11-22T03:31:51;93859.66;;;3.19;100.00
24610;BME280;12758;47.890;11.694;2023-11-22T03:34:18;93871.28;;;3.39;100.00
24610;BME280;12758;47.890;11.694;2023-11-22T03:36:44;93871.38;;;3.29;100.00
24610;BME280;12758;47.890;11.694;2023-11-22T03:39:10;93875.53;;;3.11;100.00
24610;BME280;12758;47.890;11.694;2023-11-22T03:41:36;93878.53;;;3.09;100.00
24610;BME280;12758;47.890;11.694;2023-11-22T03:44:03;93883.84;;;2.80;100.00
24610;BME280;12758;47.890;11.694;2023-11-22T03:46:29;93882.75;;;3.15;100.00
24610;BME280;12758;47.890;11.694;2023-11-22T03:48:56;93884.25;;;3.26;100.00
24610;BME280;12758;47.890;11.694;2023-11-22T03:51:22;93889.69;;;3.50;100.00
24610;BME280;12758;47.890;11.694;2023-11-22T03:53:48;93893.81;;;3.09;100.00
24610;BME280;12758;47.890;11.694;2023-11-22T03:56:14;93898.66;;;3.01;100.00
24610;BME280;12758;47.890;11.694;2023-11-22T03:58:40;93904.31;;;3.00;100.00
24610;BME280;12758;47.890;11.694;2023-11-22T04:01:06;93901.16;;;2.93;100.00
24610;BME280;12758;47.890;11.694;2023-11-22T04:03:32;93904.09;;;2.91;100.00
24610;BME280;12758;47.890;11.694;2023-11-22T04:05:59;93905.97;;;2.96;100.00
24610;BME280;12758;47.890;11.694;2023-11-22T04:08:25;93912.19;;;2.86;100.00
24610;BME280;12758;47.890;11.694;2023-11-22T04:10:51;93921.41;;;2.70;100.00
24610;BME280;12758;47.890;11.694;2023-11-22T04:13:17;93916.00;;;2.75;100.00
24610;BME280;12758;47.890;11.694;2023-11-22T04:15:43;93918.44;;;2.71;100.00
24610;BME280;12758;47.890;11.694;2023-11-22T04:18:09;93912.97;;;2.42;100.00
24610;BME280;12758;47.890;11.694;2023-11-22T04:20:35;93911.72;;;2.24;100.00
24610;BME280;12758;47.890;11.694;2023-11-22T04:23:02;93927.81;;;2.19;100.00
24610;BME280;12758;47.890;11.694;2023-11-22T04:25:28;93928.31;;;2.21;100.00
24610;BME280;12758;47.890;11.694;2023-11-22T04:27:54;93918.69;;;2.25;100.00
24610;BME280;12758;47.890;11.694;2023-11-22T04:30:20;93916.81;;;2.21;100.00
24610;BME280;12758;47.890;11.694;2023-11-22T04:32:46;93923.78;;;2.22;100.00
24610;BME280;12758;47.890;11.694;2023-11-22T04:35:13;93923.50;;;2.28;100.00
24610;BME280;12758;47.890;11.694;2023-11-22T04:37:39;93925.63;;;2.26;100.00
24610;BME280;12758;47.890;11.694;2023-11-22T04:40:07;93936.41;;;2.16;100.00
24610;BME280;12758;47.890;11.694;2023-11-22T04:42:34;93938.03;;;2.07;100.00
24610;BME280;12758;47.890;11.694;2023-11-22T04:45:00;93948.72;;;2.12;100.00
24610;BME280;12758;47.890;11.694;2023-11-22T04:47:26;93944.72;;;2.04;100.00
24610;BME280;12758;47.890;11.694;2023-11-22T04:49:52;93950.78;;;2.30;100.00
24610;BME280;12758;47.890;11.694;2023-11-22T04:52:18;93952.13;;;2.33;100.00
24610;BME280;12758;47.890;11.694;2023-11-22T04:54:44;93958.66;;;2.71;100.00
24610;BME280;12758;47.890;11.694;2023-11-22T04:57:10;93970.06;;;2.38;100.00
24610;BME280;12758;47.890;11.694;2023-11-22T04:59:36;93965.25;;;2.35;100.00
24610;BME280;12758;47.890;11.694;2023-11-22T05:02:04;93980.38;;;1.84;100.00
24610;BME280;12758;47.890;11.694;2023-11-22T05:04:30;93981.34;;;2.89;100.00
24610;BME280;12758;47.890;11.694;2023-11-22T05:06:56;93982.81;;;2.56;100.00
24610;BME280;12758;47.890;11.694;2023-11-22T05:09:22;93988.19;;;2.56;100.00
24610;BME280;12758;47.890;11.694;2023-11-22T05:11:48;93990.69;;;2.92;100.00
24610;BME280;12758;47.890;11.694;2023-11-22T05:14:14;94005.97;;;2.31;100.00
24610;BME280;12758;47.890;11.694;2023-11-22T05:16:40;94008.16;;;2.04;100.00
24610;BME280;12758;47.890;11.694;2023-11-22T05:19:07;94000.94;;;3.63;100.00
24610;BME280;12758;47.890;11.694;2023-11-22T05:21:33;94003.31;;;3.31;100.00
24610;BME280;12758;47.890;11.694;2023-11-22T05:23:59;94005.91;;;4.09;100.00
24610;BME280;12758;47.890;11.694;2023-11-22T05:26:25;94017.09;;;4.70;100.00
24610;BME280;12758;47.890;11.694;2023-11-22T05:28:52;94020.16;;;4.34;100.00
24610;BME280;12758;47.890;11.694;2023-11-22T05:31:19;94020.03;;;4.92;100.00
24610;BME280;12758;47.890;11.694;2023-11-22T05:33:46;94023.00;;;4.90;100.00
24610;BME280;12758;47.890;11.694;2023-11-22T05:36:12;94030.00;;;4.92;100.00
24610;BME280;12758;47.890;11.694;2023-11-22T05:38:39;94044.16;;;4.97;100.00
24610;BME280;12758;47.890;11.694;2023-11-22T05:41:05;94048.88;;;5.48;100.00
24610;BME280;12758;47.890;11.694;2023-11-22T05:43:31;94048.59;;;5.69;100.00
24610;BME280;12758;47.890;11.694;2023-11-22T05:45:57;94058.03;;;5.85;100.00
24610;BME280;12758;47.890;11.694;2023-11-22T05:48:24;94062.69;;;5.98;100.00
24610;BME280;12758;47.890;11.694;2023-11-22T05:50:50;94069.09;;;6.02;100.00
24610;BME280;12758;47.890;11.694;2023-11-22T05:53:16;94080.88;;;6.06;100.00
24610;BME280;12758;47.890;11.694;2023-11-22T05:55:45;94085.69;;;6.10;100.00
24610;BME280;12758;47.890;11.694;2023-11-22T05:58:11;94086.72;;;6.14;100.00
24610;BME280;12758;47.890;11.694;2023-11-22T06:00:37;94095.03;;;5.98;100.00
24610;BME280;12758;47.890;11.694;2023-11-22T06:03:04;94101.75;;;4.96;100.00
24610;BME280;12758;47.890;11.694;2023-11-22T06:05:30;94103.59;;;5.44;100.00
24610;BME280;12758;47.890;11.694;2023-11-22T06:07:56;94122.25;;;5.35;100.00
24610;BME280;12758;47.890;11.694;2023-11-22T06:10:22;94116.97;;;5.68;100.00
24610;BME280;12758;47.890;11.694;2023-11-22T06:12:50;94134.72;;;5.93;100.00
24610;BME280;12758;47.890;11.694;2023-11-22T06:15:16;94128.66;;;5.82;100.00
24610;BME280;12758;47.890;11.694;2023-11-22T06:17:44;94137.69;;;5.05;100.00
24610;BME280;12758;47.890;11.694;2023-11-22T06:20:11;94135.78;;;5.73;100.00
24610;BME280;12758;47.890;11.694;2023-11-22T06:22:37;94138.22;;;5.26;100.00
24610;BME280;12758;47.890;11.694;2023-11-22T06:25:07;94137.56;;;5.16;100.00
24610;BME280;12758;47.890;11.694;2023-11-22T06:27:33;94142.50;;;5.51;100.00
24610;BME280;12758;47.890;11.694;2023-11-22T06:29:59;94141.59;;;5.80;100.00
24610;BME280;12758;47.890;11.694;2023-11-22T06:32:25;94154.47;;;5.83;100.00
24610;BME280;12758;47.890;11.694;2023-11-22T06:34:51;94156.09;;;5.65;100.00
24610;BME280;12758;47.890;11.694;2023-11-22T06:37:17;94157.06;;;5.93;100.00
24610;BME280;12758;47.890;11.694;2023-11-22T06:39:44;94160.69;;;6.02;100.00
24610;BME280;12758;47.890;11.694;2023-11-22T06:42:10;94165.72;;;6.09;100.00
24610;BME280;12758;47.890;11.694;2023-11-22T06:44:36;94168.94;;;6.11;100.00
24610;BME280;12758;47.890;11.694;2023-11-22T06:47:03;94171.09;;;6.09;100.00
24610;BME280;12758;47.890;11.694;2023-11-22T06:49:29;94172.94;;;6.14;100.00
24610;BME280;12758;47.890;11.694;2023-11-22T06:51:55;94173.94;;;5.99;100.00
24610;BME280;12758;47.890;11.694;2023-11-22T06:54:22;94177.59;;;6.08;100.00
24610;BME280;12758;47.890;11.694;2023-11-22T06:56:48;94183.63;;;6.00;100.00
24610;BME280;12758;47.890;11.694;2023-11-22T06:59:15;94193.78;;;5.65;100.00
24610;BME280;12758;47.890;11.694;2023-11-22T07:01:41;94186.75;;;5.88;100.00
24610;BME280;12758;47.890;11.694;2023-11-22T07:04:07;94189.22;;;6.03;100.00
24610;BME280;12758;47.890;11.694;2023-11-22T07:06:33;94188.66;;;6.06;100.00
24610;BME280;12758;47.890;11.694;2023-11-22T07:08:59;94191.88;;;6.09;100.00
24610;BME280;12758;47.890;11.694;2023-11-22T07:11:25;94199.69;;;6.10;100.00
24610;BME280;12758;47.890;11.694;2023-11-22T07:13:52;94204.25;;;6.10;100.00
24610;BME280;12758;47.890;11.694;2023-11-22T07:16:18;94211.25;;;6.11;100.00
24610;BME280;12758;47.890;11.694;2023-11-22T07:18:44;94209.63;;;6.10;100.00
24610;BME280;12758;47.890;11.694;2023-11-22T07:21:11;94209.63;;;6.10;100.00
24610;BME280;12758;47.890;11.694;2023-11-22T07:23:37;94222.69;;;5.54;100.00
24610;BME280;12758;47.890;11.694;2023-11-22T07:26:03;94222.56;;;5.65;100.00
24610;BME280;12758;47.890;11.694;2023-11-22T07:28:31;94215.41;;;5.79;100.00
24610;BME280;12758;47.890;11.694;2023-11-22T07:30:58;94223.41;;;5.84;100.00
24610;BME280;12758;47.890;11.694;2023-11-22T07:33:24;94222.25;;;5.90;100.00
24610;BME280;12758;47.890;11.694;2023-11-22T07:35:51;94232.47;;;5.93;100.00
24610;BME280;12758;47.890;11.694;2023-11-22T07:38:17;94222.22;;;5.95;100.00
24610;BME280;12758;47.890;11.694;2023-11-22T07:40:45;94227.66;;;5.90;100.00
24610;BME280;12758;47.890;11.694;2023-11-22T07:43:11;94238.94;;;5.49;100.00
24610;BME280;12758;47.890;11.694;2023-11-22T07:45:37;94247.16;;;5.82;100.00
24610;BME280;12758;47.890;11.694;2023-11-22T07:48:04;94250.00;;;4.89;100.00
24610;BME280;12758;47.890;11.694;2023-11-22T07:50:30;94261.22;;;5.26;100.00
24610;BME280;12758;47.890;11.694;2023-11-22T07:52:56;94256.69;;;5.50;100.00
24610;BME280;12758;47.890;11.694;2023-11-22T07:55:22;94253.59;;;5.62;100.00
24610;BME280;12758;47.890;11.694;2023-11-22T07:57:49;94254.84;;;5.70;100.00
24610;BME280;12758;47.890;11.694;2023-11-22T08:00:17;94269.81;;;5.28;100.00
24610;BME280;12758;47.890;11.694;2023-11-22T08:02:45;94273.88;;;4.23;100.00
24610;BME280;12758;47.890;11.694;2023-11-22T08:05:11;94279.00;;;3.59;100.00
24610;BME280;12758;47.890;11.694;2023-11-22T08:07:38;94282.63;;;2.78;100.00
24610;BME280;12758;47.890;11.694;2023-11-22T08:10:07;94280.78;;;2.73;100.00
24610;BME280;12758;47.890;11.694;2023-11-22T08:12:35;94278.03;;;2.22;100.00
24610;BME280;12758;47.890;11.694;2023-11-22T08:15:03;94277.00;;;2.90;100.00
24610;BME280;12758;47.890;11.694;2023-11-22T08:17:29;94277.28;;;2.73;100.00
24610;BME280;12758;47.890;11.694;2023-11-22T08:19:55;94290.41;;;2.79;100.00
24610;BME280;12758;47.890;11.694;2023-11-22T08:22:22;94294.66;;;2.29;100.00
24610;BME280;12758;47.890;11.694;2023-11-22T08:24:48;94293.03;;;2.33;100.00
24610;BME280;12758;47.890;11.694;2023-11-22T08:27:14;94289.34;;;2.60;100.00
24610;BME280;12758;47.890;11.694;2023-11-22T08:29:41;94294.69;;;2.75;100.00
24610;BME280;12758;47.890;11.694;2023-11-22T08:32:07;94291.81;;;3.83;100.00
24610;BME280;12758;47.890;11.694;2023-11-22T08:34:33;94310.16;;;3.45;100.00
24610;BME280;12758;47.890;11.694;2023-11-22T08:36:59;94304.59;;;3.11;100.00
24610;BME280;12758;47.890;11.694;2023-11-22T08:39:26;94313.47;;;2.96;100.00
24610;BME280;12758;47.890;11.694;2023-11-22T08:41:52;94315.31;;;3.26;100.00
24610;BME280;12758;47.890;11.694;2023-11-22T08:44:18;94320.66;;;2.60;100.00
24610;BME280;12758;47.890;11.694;2023-11-22T08:46:45;94313.44;;;2.86;100.00
24610;BME280;12758;47.890;11.694;2023-11-22T08:49:12;94313.75;;;2.89;100.00
24610;BME280;12758;47.890;11.694;2023-11-22T08:51:40;94324.72;;;2.77;100.00
24610;BME280;12758;47.890;11.694;2023-11-22T08:54:08;94333.28;;;3.15;100.00
24610;BME280;12758;47.890;11.694;2023-11-22T08:56:35;94332.22;;;2.91;100.00
24610;BME280;12758;47.890;11.694;2023-11-22T08:59:01;94329.50;;;3.47;100.00
24610;BME280;12758;47.890;11.694;2023-11-22T09:01:27;94329.25;;;3.23;100.00
24610;BME280;12758;47.890;11.694;2023-11-22T09:03:53;94323.78;;;3.79;100.00
24610;BME280;12758;47.890;11.694;2023-11-22T09:06:19;94317.09;;;3.56;100.00
24610;BME280;12758;47.890;11.694;2023-11-22T09:08:44;94311.13;;;4.39;100.00
24610;BME280;12758;47.890;11.694;2023-11-22T09:11:11;94326.44;;;4.83;100.00
24610;BME280;12758;47.890;11.694;2023-11-22T09:13:39;94333.13;;;4.86;100.00
24610;BME280;12758;47.890;11.694;2023-11-22T09:16:06;94333.03;;;5.01;100.00
24610;BME280;12758;47.890;11.694;2023-11-22T09:18:33;94344.66;;;5.26;100.00
24610;BME280;12758;47.890;11.694;2023-11-22T09:21:03;94350.75;;;5.07;100.00
24610;BME280;12758;47.890;11.694;2023-11-22T09:23:30;94370.56;;;5.17;100.00
24610;BME280;12758;47.890;11.694;2023-11-22T09:25:56;94386.00;;;5.40;100.00
24610;BME280;12758;47.890;11.694;2023-11-22T09:28:22;94370.16;;;5.33;100.00
24610;BME280;12758;47.890;11.694;2023-11-22T09:30:49;94378.41;;;5.42;100.00
24610;BME280;12758;47.890;11.694;2023-11-22T09:33:15;94379.97;;;5.48;100.00
24610;BME280;12758;47.890;11.694;2023-11-22T09:35:42;94381.19;;;5.32;100.00
24610;BME280;12758;47.890;11.694;2023-11-22T09:38:09;94389.91;;;5.19;100.00
24610;BME280;12758;47.890;11.694;2023-11-22T09:40:39;94394.91;;;4.96;100.00
24610;BME280;12758;47.890;11.694;2023-11-22T09:43:06;94396.91;;;5.20;100.00
24610;BME280;12758;47.890;11.694;2023-11-22T09:45:32;94390.03;;;5.37;100.00
24610;BME280;12758;47.890;11.694;2023-11-22T09:47:59;94390.84;;;5.38;100.00
24610;BME280;12758;47.890;11.694;2023-11-22T09:50:29;94399.75;;;4.99;100.00
24610;BME280;12758;47.890;11.694;2023-11-22T09:53:02;94401.31;;;5.05;100.00
24610;BME280;12758;47.890;11.694;2023-11-22T09:55:29;94403.50;;;4.54;100.00
24610;BME280;12758;47.890;11.694;2023-11-22T09:57:56;94416.63;;;4.65;100.00
24610;BME280;12758;47.890;11.694;2023-11-22T10:00:24;94418.91;;;4.38;100.00
24610;BME280;12758;47.890;11.694;2023-11-22T10:02:52;94410.72;;;3.99;100.00
24610;BME280;12758;47.890;11.694;2023-11-22T10:05:19;94408.25;;;4.12;100.00
24610;BME280;12758;47.890;11.694;2023-11-22T10:07:46;94408.19;;;4.23;100.00
24610;BME280;12758;47.890;11.694;2023-11-22T10:10:14;94414.31;;;4.38;100.00
24610;BME280;12758;47.890;11.694;2023-11-22T10:12:42;94419.06;;;3.87;100.00
24610;BME280;12758;47.890;11.694;2023-11-22T10:15:12;94416.41;;;3.56;100.00
24610;BME280;12758;47.890;11.694;2023-11-22T10:17:39;94413.75;;;3.51;100.00
24610;BME280;12758;47.890;11.694;2023-11-22T10:20:06;94404.53;;;3.93;100.00
24610;BME280;12758;47.890;11.694;2023-11-22T10:22:45;94406.72;;;3.65;100.00
24610;BME280;12758;47.890;11.694;2023-11-22T10:25:13;94407.28;;;3.72;100.00
24610;BME280;12758;47.890;11.694;2023-11-22T10:27:39;94411.31;;;3.65;100.00
24610;BME280;12758;47.890;11.694;2023-11-22T10:30:07;94418.66;;;2.30;100.00
24610;BME280;12758;47.890;11.694;2023-11-22T10:32:36;94407.31;;;3.06;100.00
24610;BME280;12758;47.890;11.694;2023-11-22T10:35:04;94412.41;;;3.18;100.00
24610;BME280;12758;47.890;11.694;2023-11-22T10:37:30;94406.41;;;4.03;100.00
24610;BME280;12758;47.890;11.694;2023-11-22T10:39:57;94403.97;;;4.01;100.00
24610;BME280;12758;47.890;11.694;2023-11-22T10:42:23;94414.56;;;3.16;100.00
24610;BME280;12758;47.890;11.694;2023-11-22T10:44:49;94413.75;;;3.15;100.00
24610;BME280;12758;47.890;11.694;2023-11-22T10:47:15;94423.69;;;3.35;100.00
24610;BME280;12758;47.890;11.694;2023-11-22T10:49:44;94421.16;;;4.00;100.00
24610;BME280;12758;47.890;11.694;2023-11-22T10:52:11;94422.56;;;3.77;100.00
24610;BME280;12758;47.890;11.694;2023-11-22T10:54:39;94413.47;;;3.58;100.00
24610;BME280;12758;47.890;11.694;2023-11-22T10:57:10;94405.41;;;3.27;100.00
24610;BME280;12758;47.890;11.694;2023-11-22T10:59:37;94404.78;;;4.02;100.00
24610;BME280;12758;47.890;11.694;2023-11-22T11:02:07;94413.97;;;4.55;100.00
24610;BME280;12758;47.890;11.694;2023-11-22T11:04:41;94409.53;;;4.85;100.00
24610;BME280;12758;47.890;11.694;2023-11-22T11:07:08;94423.88;;;5.09;100.00
24610;BME280;12758;47.890;11.694;2023-11-22T11:09:40;94432.72;;;4.71;100.00
24610;BME280;12758;47.890;11.694;2023-11-22T11:12:07;94437.78;;;4.12;100.00
24610;BME280;12758;47.890;11.694;2023-11-22T11:14:33;94447.44;;;4.18;100.00
24610;BME280;12758;47.890;11.694;2023-11-22T11:17:00;94444.44;;;4.35;100.00
24610;BME280;12758;47.890;11.694;2023-11-22T11:19:26;94455.59;;;3.52;100.00
24610;BME280;12758;47.890;11.694;2023-11-22T11:21:54;94454.69;;;4.23;100.00
24610;BME280;12758;47.890;11.694;2023-11-22T11:24:20;94449.44;;;4.62;100.00
24610;BME280;12758;47.890;11.694;2023-11-22T11:26:47;94464.00;;;4.46;100.00
24610;BME280;12758;47.890;11.694;2023-11-22T11:29:29;94459.16;;;4.53;100.00
24610;BME280;12758;47.890;11.694;2023-11-22T11:31:56;94461.91;;;4.38;100.00
24610;BME280;12758;47.890;11.694;2023-11-22T11:34:23;94456.56;;;4.23;100.00
24610;BME280;12758;47.890;11.694;2023-11-22T11:36:52;94457.78;;;4.56;100.00
24610;BME280;12758;47.890;11.694;2023-11-22T11:39:24;94458.75;;;4.80;100.00
24610;BME280;12758;47.890;11.694;2023-11-22T11:41:51;94455.88;;;4.61;100.00
24610;BME280;12758;47.890;11.694;2023-11-22T11:44:17;94460.41;;;3.86;100.00
24610;BME280;12758;47.890;11.694;2023-11-22T11:46:45;94450.06;;;4.44;100.00
24610;BME280;12758;47.890;11.694;2023-11-22T11:49:12;94430.25;;;4.79;100.00
24610;BME280;12758;47.890;11.694;2023-11-22T11:51:39;94433.03;;;5.08;100.00
24610;BME280;12758;47.890;11.694;2023-11-22T11:54:05;94424.72;;;5.05;100.00
24610;BME280;12758;47.890;11.694;2023-11-22T11:56:33;94433.63;;;5.00;100.00
24610;BME280;12758;47.890;11.694;2023-11-22T11:58:59;94437.72;;;4.33;100.00
24610;BME280;12758;47.890;11.694;2023-11-22T12:01:27;94437.00;;;4.77;100.00
24610;BME280;12758;47.890;11.694;2023-11-22T12:03:55;94433.59;;;5.05;100.00
24610;BME280;12758;47.890;11.694;2023-11-22T12:06:21;94438.75;;;4.47;100.00
24610;BME280;12758;47.890;11.694;2023-11-22T12:08:47;94431.56;;;4.87;100.00
24610;BME280;12758;47.890;11.694;2023-11-22T12:11:14;94422.28;;;5.08;100.00
24610;BME280;12758;47.890;11.694;2023-11-22T12:13:41;94431.44;;;5.07;100.00
24610;BME280;12758;47.890;11.694;2023-11-22T12:16:13;94437.88;;;5.11;100.00
24610;BME280;12758;47.890;11.694;2023-11-22T12:18:40;94431.69;;;5.11;100.00
24610;BME280;12758;47.890;11.694;2023-11-22T12:21:06;94427.44;;;5.00;100.00
24610;BME280;12758;47.890;11.694;2023-11-22T12:23:33;94421.16;;;5.14;100.00
24610;BME280;12758;47.890;11.694;2023-11-22T12:26:01;94423.31;;;5.12;100.00
24610;BME280;12758;47.890;11.694;2023-11-22T12:28:28;94437.25;;;5.20;100.00
24610;BME280;12758;47.890;11.694;2023-11-22T12:30:54;94432.41;;;5.22;100.00
24610;BME280;12758;47.890;11.694;2023-11-22T12:33:20;94437.88;;;5.11;100.00
24610;BME280;12758;47.890;11.694;2023-11-22T12:35:47;94438.84;;;5.26;100.00
24610;BME280;12758;47.890;11.694;2023-11-22T12:38:14;94447.84;;;4.56;100.00
24610;BME280;12758;47.890;11.694;2023-11-22T12:40:44;94445.41;;;5.09;100.00
24610;BME280;12758;47.890;11.694;2023-11-22T12:43:12;94441.59;;;5.16;100.00
24610;BME280;12758;47.890;11.694;2023-11-22T12:45:39;94446.16;;;4.76;100.00
24610;BME280;12758;47.890;11.694;2023-11-22T12:48:22;94445.41;;;3.39;100.00